sensor_id;sensor_type;location;lat;lon;timestamp;P1;durP1;ratioP1;P2;durP2;ratioP2
78120;SDS011;67585;44.802;10.332;2023-04-24T00:01:42;6.30;;;1.30;;
78120;SDS011;67585;44.802;10.332;2023-04-24T00:04:08;5.90;;;1.25;;
78120;SDS011;67585;44.802;10.332;2023-04-24T00:06:36;3.10;;;0.73;;
78120;SDS011;67585;44.802;10.332;2023-04-24T00:09:02;5.70;;;2.53;;
78120;SDS011;67585;44.802;10.332;2023-04-24T00:11:28;5.85;;;2.40;;
78120;SDS011;67585;44.802;10.332;2023-04-24T00:13:55;4.40;;;1.10;;
78120;SDS011;67585;44.802;10.332;2023-04-24T00:16:21;5.63;;;1.80;;
78120;SDS011;67585;44.802;10.332;2023-04-24T00:18:47;6.07;;;1.85;;
78120;SDS011;67585;44.802;10.332;2023-04-24T00:21:13;5.07;;;1.48;;
78120;SDS011;67585;44.802;10.332;2023-04-24T00:23:39;4.00;;;1.38;;
78120;SDS011;67585;44.802;10.332;2023-04-24T00:26:05;5.97;;;2.67;;
78120;SDS011;67585;44.802;10.332;2023-04-24T00:28:30;6.30;;;1.15;;
78120;SDS011;67585;44.802;10.332;2023-04-24T00:30:55;6.07;;;1.42;;
78120;SDS011;67585;44.802;10.332;2023-04-24T00:33:21;9.10;;;1.83;;
78120;SDS011;67585;44.802;10.332;2023-04-24T00:35:46;5.55;;;1.67;;
78120;SDS011;67585;44.802;10.332;2023-04-24T00:38:12;4.57;;;1.65;;
78120;SDS011;67585;44.802;10.332;2023-04-24T00:40:37;7.35;;;2.10;;
78120;SDS011;67585;44.802;10.332;2023-04-24T00:43:02;7.35;;;1.80;;
78120;SDS011;67585;44.802;10.332;2023-04-24T00:45:28;5.30;;;1.92;;
78120;SDS011;67585;44.802;10.332;2023-04-24T00:47:56;5.65;;;2.08;;
78120;SDS011;67585;44.802;10.332;2023-04-24T00:50:21;6.80;;;1.95;;
78120;SDS011;67585;44.802;10.332;2023-04-24T00:55:14;5.53;;;1.83;;
78120;SDS011;67585;44.802;10.332;2023-04-24T00:57:39;8.50;;;1.40;;
78120;SDS011;67585;44.802;10.332;2023-04-24T01:00:05;5.97;;;1.65;;
78120;SDS011;67585;44.802;10.332;2023-04-24T01:02:37;7.88;;;1.52;;
78120;SDS011;67585;44.802;10.332;2023-04-24T01:05:05;4.97;;;1.45;;
78120;SDS011;67585;44.802;10.332;2023-04-24T01:07:33;4.18;;;1.13;;
78120;SDS011;67585;44.802;10.332;2023-04-24T01:09:59;5.32;;;1.80;;
78120;SDS011;67585;44.802;10.332;2023-04-24T01:12:24;7.07;;;2.28;;
78120;SDS011;67585;44.802;10.332;2023-04-24T01:14:50;7.88;;;1.58;;
78120;SDS011;67585;44.802;10.332;2023-04-24T01:17:15;4.45;;;1.65;;
78120;SDS011;67585;44.802;10.332;2023-04-24T01:19:41;4.90;;;2.33;;
78120;SDS011;67585;44.802;10.332;2023-04-24T01:22:15;7.45;;;1.45;;
78120;SDS011;67585;44.802;10.332;2023-04-24T01:24:42;8.48;;;2.28;;
78120;SDS011;67585;44.802;10.332;2023-04-24T01:27:08;3.67;;;1.00;;
78120;SDS011;67585;44.802;10.332;2023-04-24T01:29:35;5.00;;;1.92;;
78120;SDS011;67585;44.802;10.332;2023-04-24T01:32:00;4.45;;;2.03;;
78120;SDS011;67585;44.802;10.332;2023-04-24T01:34:27;5.95;;;2.55;;
78120;SDS011;67585;44.802;10.332;2023-04-24T01:36:52;7.80;;;3.05;;
78120;SDS011;67585;44.802;10.332;2023-04-24T01:39:18;8.40;;;1.85;;
78120;SDS011;67585;44.802;10.332;2023-04-24T01:41:45;7.55;;;2.80;;
78120;SDS011;67585;44.802;10.332;2023-04-24T01:44:11;9.23;;;2.90;;
78120;SDS011;67585;44.802;10.332;2023-04-24T01:46:37;5.85;;;2.10;;
78120;SDS011;67585;44.802;10.332;2023-04-24T01:49:03;6.25;;;2.83;;
78120;SDS011;67585;44.802;10.332;2023-04-24T01:51:28;7.20;;;3.10;;
78120;SDS011;67585;44.802;10.332;2023-04-24T01:53:54;6.57;;;3.05;;
78120;SDS011;67585;44.802;10.332;2023-04-24T01:56:21;6.47;;;2.63;;
78120;SDS011;67585;44.802;10.332;2023-04-24T01:58:47;9.02;;;3.15;;
78120;SDS011;67585;44.802;10.332;2023-04-24T02:01:17;5.78;;;2.63;;
78120;SDS011;67585;44.802;10.332;2023-04-24T02:03:43;5.68;;;2.63;;
78120;SDS011;67585;44.802;10.332;2023-04-24T02:06:09;8.48;;;3.55;;
78120;SDS011;67585;44.802;10.332;2023-04-24T02:08:34;6.82;;;3.15;;
78120;SDS011;67585;44.802;10.332;2023-04-24T02:11:00;5.50;;;2.05;;
78120;SDS011;67585;44.802;10.332;2023-04-24T02:13:27;7.90;;;3.30;;
78120;SDS011;67585;44.802;10.332;2023-04-24T02:15:52;10.75;;;3.65;;
78120;SDS011;67585;44.802;10.332;2023-04-24T02:18:18;8.00;;;3.13;;
78120;SDS011;67585;44.802;10.332;2023-04-24T02:20:43;5.90;;;3.15;;
78120;SDS011;67585;44.802;10.332;2023-04-24T02:23:08;9.05;;;3.40;;
78120;SDS011;67585;44.802;10.332;2023-04-24T02:25:34;8.45;;;3.53;;
78120;SDS011;67585;44.802;10.332;2023-04-24T02:27:59;13.95;;;3.65;;
78120;SDS011;67585;44.802;10.332;2023-04-24T02:30:25;8.88;;;3.35;;
78120;SDS011;67585;44.802;10.332;2023-04-24T02:32:50;8.07;;;3.38;;
78120;SDS011;67585;44.802;10.332;2023-04-24T02:35:16;9.35;;;3.83;;
78120;SDS011;67585;44.802;10.332;2023-04-24T02:37:42;8.52;;;2.80;;
78120;SDS011;67585;44.802;10.332;2023-04-24T02:40:07;6.30;;;3.03;;
78120;SDS011;67585;44.802;10.332;2023-04-24T02:42:33;5.88;;;2.40;;
78120;SDS011;67585;44.802;10.332;2023-04-24T02:44:59;5.90;;;2.03;;
78120;SDS011;67585;44.802;10.332;2023-04-24T02:47:24;7.63;;;2.85;;
78120;SDS011;67585;44.802;10.332;2023-04-24T02:49:50;6.82;;;2.90;;
78120;SDS011;67585;44.802;10.332;2023-04-24T02:52:15;8.30;;;2.63;;
78120;SDS011;67585;44.802;10.332;2023-04-24T02:54:41;7.50;;;3.85;;
78120;SDS011;67585;44.802;10.332;2023-04-24T02:57:07;7.15;;;3.35;;
78120;SDS011;67585;44.802;10.332;2023-04-24T02:59:32;7.95;;;3.25;;
78120;SDS011;67585;44.802;10.332;2023-04-24T03:01:58;8.63;;;2.70;;
78120;SDS011;67585;44.802;10.332;2023-04-24T03:04:23;8.02;;;3.22;;
78120;SDS011;67585;44.802;10.332;2023-04-24T03:06:49;5.35;;;2.72;;
78120;SDS011;67585;44.802;10.332;2023-04-24T03:09:17;10.85;;;3.58;;
78120;SDS011;67585;44.802;10.332;2023-04-24T03:11:43;8.32;;;3.38;;
78120;SDS011;67585;44.802;10.332;2023-04-24T03:14:08;10.15;;;2.92;;
78120;SDS011;67585;44.802;10.332;2023-04-24T03:16:33;9.55;;;3.15;;
78120;SDS011;67585;44.802;10.332;2023-04-24T03:18:59;6.63;;;2.53;;
78120;SDS011;67585;44.802;10.332;2023-04-24T03:21:24;7.97;;;2.63;;
78120;SDS011;67585;44.802;10.332;2023-04-24T03:23:50;7.95;;;3.67;;
78120;SDS011;67585;44.802;10.332;2023-04-24T03:26:16;7.28;;;3.33;;
78120;SDS011;67585;44.802;10.332;2023-04-24T03:28:41;9.70;;;3.92;;
78120;SDS011;67585;44.802;10.332;2023-04-24T03:31:07;7.85;;;3.92;;
78120;SDS011;67585;44.802;10.332;2023-04-24T03:33:32;9.85;;;3.33;;
78120;SDS011;67585;44.802;10.332;2023-04-24T03:35:58;14.32;;;4.25;;
78120;SDS011;67585;44.802;10.332;2023-04-24T03:38:23;10.77;;;3.42;;
78120;SDS011;67585;44.802;10.332;2023-04-24T03:40:49;7.68;;;2.60;;
78120;SDS011;67585;44.802;10.332;2023-04-24T03:43:14;9.57;;;3.15;;
78120;SDS011;67585;44.802;10.332;2023-04-24T03:45:39;10.88;;;3.20;;
78120;SDS011;67585;44.802;10.332;2023-04-24T03:48:05;7.07;;;3.67;;
78120;SDS011;67585;44.802;10.332;2023-04-24T03:50:30;10.65;;;4.95;;
78120;SDS011;67585;44.802;10.332;2023-04-24T03:52:55;9.73;;;3.20;;
78120;SDS011;67585;44.802;10.332;2023-04-24T03:55:21;7.63;;;3.63;;
78120;SDS011;67585;44.802;10.332;2023-04-24T03:57:46;9.15;;;3.95;;
78120;SDS011;67585;44.802;10.332;2023-04-24T04:00:12;10.32;;;3.35;;
78120;SDS011;67585;44.802;10.332;2023-04-24T04:02:37;8.40;;;3.35;;
78120;SDS011;67585;44.802;10.332;2023-04-24T04:05:03;10.00;;;3.05;;
78120;SDS011;67585;44.802;10.332;2023-04-24T04:07:28;9.90;;;3.33;;
78120;SDS011;67585;44.802;10.332;2023-04-24T04:09:54;10.60;;;3.88;;
78120;SDS011;67585;44.802;10.332;2023-04-24T04:12:20;8.07;;;3.92;;
78120;SDS011;67585;44.802;10.332;2023-04-24T04:14:45;9.38;;;3.90;;
78120;SDS011;67585;44.802;10.332;2023-04-24T04:17:11;8.60;;;3.38;;
78120;SDS011;67585;44.802;10.332;2023-04-24T04:19:36;7.03;;;3.22;;
78120;SDS011;67585;44.802;10.332;2023-04-24T04:22:02;9.45;;;4.22;;
78120;SDS011;67585;44.802;10.332;2023-04-24T04:24:27;7.18;;;3.63;;
78120;SDS011;67585;44.802;10.332;2023-04-24T04:26:53;8.60;;;3.50;;
78120;SDS011;67585;44.802;10.332;2023-04-24T04:29:21;11.52;;;3.20;;
78120;SDS011;67585;44.802;10.332;2023-04-24T04:31:47;11.50;;;3.97;;
78120;SDS011;67585;44.802;10.332;2023-04-24T04:34:13;9.63;;;4.30;;
78120;SDS011;67585;44.802;10.332;2023-04-24T04:36:39;10.50;;;4.20;;
78120;SDS011;67585;44.802;10.332;2023-04-24T04:39:05;9.13;;;3.80;;
78120;SDS011;67585;44.802;10.332;2023-04-24T04:41:31;7.70;;;3.97;;
78120;SDS011;67585;44.802;10.332;2023-04-24T04:43:59;9.38;;;3.63;;
78120;SDS011;67585;44.802;10.332;2023-04-24T04:46:25;13.52;;;4.97;;
78120;SDS011;67585;44.802;10.332;2023-04-24T04:48:51;11.15;;;4.45;;
78120;SDS011;67585;44.802;10.332;2023-04-24T04:51:17;9.05;;;4.35;;
78120;SDS011;67585;44.802;10.332;2023-04-24T04:53:43;13.48;;;5.32;;
78120;SDS011;67585;44.802;10.332;2023-04-24T04:56:08;11.30;;;4.53;;
78120;SDS011;67585;44.802;10.332;2023-04-24T04:58:34;10.70;;;4.40;;
78120;SDS011;67585;44.802;10.332;2023-04-24T05:00:59;10.95;;;5.10;;
78120;SDS011;67585;44.802;10.332;2023-04-24T05:03:24;12.27;;;5.93;;
78120;SDS011;67585;44.802;10.332;2023-04-24T05:05:50;13.63;;;5.18;;
78120;SDS011;67585;44.802;10.332;2023-04-24T05:08:15;15.23;;;5.75;;
78120;SDS011;67585;44.802;10.332;2023-04-24T05:10:41;14.60;;;4.00;;
78120;SDS011;67585;44.802;10.332;2023-04-24T05:13:06;10.25;;;4.50;;
78120;SDS011;67585;44.802;10.332;2023-04-24T05:15:32;13.93;;;5.07;;
78120;SDS011;67585;44.802;10.332;2023-04-24T05:17:57;12.93;;;5.30;;
78120;SDS011;67585;44.802;10.332;2023-04-24T05:20:22;10.80;;;4.45;;
78120;SDS011;67585;44.802;10.332;2023-04-24T05:22:48;7.20;;;3.25;;
78120;SDS011;67585;44.802;10.332;2023-04-24T05:25:13;7.63;;;3.47;;
78120;SDS011;67585;44.802;10.332;2023-04-24T05:27:39;7.68;;;2.80;;
78120;SDS011;67585;44.802;10.332;2023-04-24T05:30:05;8.38;;;3.58;;
78120;SDS011;67585;44.802;10.332;2023-04-24T05:34:58;10.03;;;3.57;;
78120;SDS011;67585;44.802;10.332;2023-04-24T05:37:23;9.77;;;4.20;;
78120;SDS011;67585;44.802;10.332;2023-04-24T05:39:49;12.38;;;5.55;;
78120;SDS011;67585;44.802;10.332;2023-04-24T05:42:14;12.65;;;5.03;;
78120;SDS011;67585;44.802;10.332;2023-04-24T05:44:40;11.13;;;5.95;;
78120;SDS011;67585;44.802;10.332;2023-04-24T05:47:05;11.45;;;5.13;;
78120;SDS011;67585;44.802;10.332;2023-04-24T05:49:30;12.15;;;4.57;;
78120;SDS011;67585;44.802;10.332;2023-04-24T05:51:56;11.25;;;5.60;;
78120;SDS011;67585;44.802;10.332;2023-04-24T05:54:22;11.57;;;5.05;;
78120;SDS011;67585;44.802;10.332;2023-04-24T05:56:48;16.85;;;5.13;;
78120;SDS011;67585;44.802;10.332;2023-04-24T05:59:14;12.70;;;5.57;;
78120;SDS011;67585;44.802;10.332;2023-04-24T06:01:40;10.88;;;5.28;;
78120;SDS011;67585;44.802;10.332;2023-04-24T06:04:05;10.55;;;5.13;;
78120;SDS011;67585;44.802;10.332;2023-04-24T06:06:31;11.13;;;4.55;;
78120;SDS011;67585;44.802;10.332;2023-04-24T06:08:57;13.38;;;5.80;;
78120;SDS011;67585;44.802;10.332;2023-04-24T06:11:23;17.02;;;6.35;;
78120;SDS011;67585;44.802;10.332;2023-04-24T06:13:49;15.13;;;7.13;;
78120;SDS011;67585;44.802;10.332;2023-04-24T06:16:15;13.43;;;6.75;;
78120;SDS011;67585;44.802;10.332;2023-04-24T06:18:40;12.90;;;6.95;;
78120;SDS011;67585;44.802;10.332;2023-04-24T06:21:06;14.88;;;7.07;;
78120;SDS011;67585;44.802;10.332;2023-04-24T06:23:31;15.90;;;7.38;;
78120;SDS011;67585;44.802;10.332;2023-04-24T06:25:58;13.32;;;6.82;;
78120;SDS011;67585;44.802;10.332;2023-04-24T06:28:24;15.20;;;7.43;;
78120;SDS011;67585;44.802;10.332;2023-04-24T06:30:49;17.15;;;6.78;;
78120;SDS011;67585;44.802;10.332;2023-04-24T06:33:16;15.57;;;7.75;;
78120;SDS011;67585;44.802;10.332;2023-04-24T06:35:41;13.88;;;7.32;;
78120;SDS011;67585;44.802;10.332;2023-04-24T06:38:06;11.18;;;5.20;;
78120;SDS011;67585;44.802;10.332;2023-04-24T06:40:32;13.88;;;6.80;;
78120;SDS011;67585;44.802;10.332;2023-04-24T06:42:58;17.63;;;7.32;;
78120;SDS011;67585;44.802;10.332;2023-04-24T06:45:25;15.48;;;6.22;;
78120;SDS011;67585;44.802;10.332;2023-04-24T06:47:50;17.23;;;6.60;;
78120;SDS011;67585;44.802;10.332;2023-04-24T06:50:16;15.90;;;6.65;;
78120;SDS011;67585;44.802;10.332;2023-04-24T06:52:41;13.80;;;6.25;;
78120;SDS011;67585;44.802;10.332;2023-04-24T06:55:07;11.45;;;6.07;;
78120;SDS011;67585;44.802;10.332;2023-04-24T06:57:33;15.68;;;6.53;;
78120;SDS011;67585;44.802;10.332;2023-04-24T06:59:58;15.80;;;7.50;;
78120;SDS011;67585;44.802;10.332;2023-04-24T07:02:24;12.70;;;5.40;;
78120;SDS011;67585;44.802;10.332;2023-04-24T07:04:50;13.25;;;6.55;;
78120;SDS011;67585;44.802;10.332;2023-04-24T07:07:15;11.02;;;5.60;;
78120;SDS011;67585;44.802;10.332;2023-04-24T07:09:41;8.43;;;4.80;;
78120;SDS011;67585;44.802;10.332;2023-04-24T07:12:07;12.73;;;4.60;;
78120;SDS011;67585;44.802;10.332;2023-04-24T07:14:33;10.18;;;5.45;;
78120;SDS011;67585;44.802;10.332;2023-04-24T07:16:58;11.75;;;5.95;;
78120;SDS011;67585;44.802;10.332;2023-04-24T07:19:24;11.05;;;5.57;;
78120;SDS011;67585;44.802;10.332;2023-04-24T07:21:49;10.43;;;5.30;;
78120;SDS011;67585;44.802;10.332;2023-04-24T07:24:15;10.93;;;4.55;;
78120;SDS011;67585;44.802;10.332;2023-04-24T07:26:40;11.25;;;5.95;;
78120;SDS011;67585;44.802;10.332;2023-04-24T07:29:06;9.77;;;2.88;;
78120;SDS011;67585;44.802;10.332;2023-04-24T07:31:32;9.80;;;4.65;;
78120;SDS011;67585;44.802;10.332;2023-04-24T07:33:57;11.18;;;4.03;;
78120;SDS011;67585;44.802;10.332;2023-04-24T07:36:23;10.68;;;4.93;;
78120;SDS011;67585;44.802;10.332;2023-04-24T07:38:49;11.57;;;4.20;;
78120;SDS011;67585;44.802;10.332;2023-04-24T07:41:15;15.02;;;4.60;;
78120;SDS011;67585;44.802;10.332;2023-04-24T07:43:41;10.85;;;5.20;;
78120;SDS011;67585;44.802;10.332;2023-04-24T07:46:08;13.57;;;5.68;;
78120;SDS011;67585;44.802;10.332;2023-04-24T07:48:33;10.75;;;4.97;;
78120;SDS011;67585;44.802;10.332;2023-04-24T07:50:59;11.05;;;3.80;;
78120;SDS011;67585;44.802;10.332;2023-04-24T07:53:24;9.32;;;4.88;;
78120;SDS011;67585;44.802;10.332;2023-04-24T07:55:50;10.25;;;4.32;;
78120;SDS011;67585;44.802;10.332;2023-04-24T07:58:15;9.50;;;4.90;;
78120;SDS011;67585;44.802;10.332;2023-04-24T08:00:40;8.40;;;3.65;;
78120;SDS011;67585;44.802;10.332;2023-04-24T08:03:06;11.40;;;4.85;;
78120;SDS011;67585;44.802;10.332;2023-04-24T08:05:31;10.07;;;3.05;;
78120;SDS011;67585;44.802;10.332;2023-04-24T08:07:57;11.88;;;4.28;;
78120;SDS011;67585;44.802;10.332;2023-04-24T08:10:23;9.20;;;4.30;;
78120;SDS011;67585;44.802;10.332;2023-04-24T08:12:48;10.48;;;4.00;;
78120;SDS011;67585;44.802;10.332;2023-04-24T08:15:14;8.00;;;2.40;;
78120;SDS011;67585;44.802;10.332;2023-04-24T08:17:40;6.85;;;2.92;;
78120;SDS011;67585;44.802;10.332;2023-04-24T08:20:06;9.98;;;3.25;;
78120;SDS011;67585;44.802;10.332;2023-04-24T08:22:38;10.85;;;3.25;;
78120;SDS011;67585;44.802;10.332;2023-04-24T08:25:04;10.50;;;3.60;;
78120;SDS011;67585;44.802;10.332;2023-04-24T08:27:30;12.45;;;4.43;;
78120;SDS011;67585;44.802;10.332;2023-04-24T08:29:56;8.25;;;3.85;;
78120;SDS011;67585;44.802;10.332;2023-04-24T08:32:23;7.97;;;3.03;;
78120;SDS011;67585;44.802;10.332;2023-04-24T08:34:48;9.50;;;4.50;;
78120;SDS011;67585;44.802;10.332;2023-04-24T08:37:14;7.10;;;3.03;;
78120;SDS011;67585;44.802;10.332;2023-04-24T08:39:39;8.38;;;3.35;;
78120;SDS011;67585;44.802;10.332;2023-04-24T08:42:05;8.90;;;3.00;;
78120;SDS011;67585;44.802;10.332;2023-04-24T08:44:33;8.68;;;4.05;;
78120;SDS011;67585;44.802;10.332;2023-04-24T08:46:59;5.85;;;3.22;;
78120;SDS011;67585;44.802;10.332;2023-04-24T08:49:27;7.93;;;3.15;;
78120;SDS011;67585;44.802;10.332;2023-04-24T08:54:19;6.63;;;2.58;;
78120;SDS011;67585;44.802;10.332;2023-04-24T08:56:45;8.57;;;3.03;;
78120;SDS011;67585;44.802;10.332;2023-04-24T08:59:13;7.68;;;3.47;;
78120;SDS011;67585;44.802;10.332;2023-04-24T09:04:05;8.32;;;4.03;;
78120;SDS011;67585;44.802;10.332;2023-04-24T09:06:34;8.07;;;3.38;;
78120;SDS011;67585;44.802;10.332;2023-04-24T09:09:00;5.75;;;1.55;;
78120;SDS011;67585;44.802;10.332;2023-04-24T09:11:26;8.25;;;3.45;;
78120;SDS011;67585;44.802;10.332;2023-04-24T09:13:55;6.22;;;3.63;;
78120;SDS011;67585;44.802;10.332;2023-04-24T09:16:21;9.35;;;3.97;;
78120;SDS011;67585;44.802;10.332;2023-04-24T09:18:49;8.68;;;3.28;;
78120;SDS011;67585;44.802;10.332;2023-04-24T09:21:15;7.25;;;3.80;;
78120;SDS011;67585;44.802;10.332;2023-04-24T09:23:40;7.65;;;3.80;;
78120;SDS011;67585;44.802;10.332;2023-04-24T09:26:06;7.10;;;3.33;;
78120;SDS011;67585;44.802;10.332;2023-04-24T09:28:38;11.27;;;4.32;;
78120;SDS011;67585;44.802;10.332;2023-04-24T09:33:32;7.82;;;2.33;;
78120;SDS011;67585;44.802;10.332;2023-04-24T09:35:58;12.35;;;4.45;;
78120;SDS011;67585;44.802;10.332;2023-04-24T09:38:30;10.20;;;4.63;;
78120;SDS011;67585;44.802;10.332;2023-04-24T09:41:07;7.25;;;3.47;;
78120;SDS011;67585;44.802;10.332;2023-04-24T09:43:33;8.05;;;3.33;;
78120;SDS011;67585;44.802;10.332;2023-04-24T09:46:05;5.57;;;1.85;;
78120;SDS011;67585;44.802;10.332;2023-04-24T09:48:33;4.72;;;1.98;;
78120;SDS011;67585;44.802;10.332;2023-04-24T09:51:03;4.05;;;1.90;;
78120;SDS011;67585;44.802;10.332;2023-04-24T09:53:32;4.80;;;1.95;;
78120;SDS011;67585;44.802;10.332;2023-04-24T09:56:07;6.93;;;3.30;;
78120;SDS011;67585;44.802;10.332;2023-04-24T09:58:35;5.18;;;2.92;;
78120;SDS011;67585;44.802;10.332;2023-04-24T10:01:01;8.43;;;2.53;;
78120;SDS011;67585;44.802;10.332;2023-04-24T10:03:29;5.28;;;3.00;;
78120;SDS011;67585;44.802;10.332;2023-04-24T10:05:59;8.75;;;2.88;;
78120;SDS011;67585;44.802;10.332;2023-04-24T10:08:26;8.75;;;3.78;;
78120;SDS011;67585;44.802;10.332;2023-04-24T10:10:57;11.15;;;4.05;;
78120;SDS011;67585;44.802;10.332;2023-04-24T10:15:50;7.60;;;2.88;;
78120;SDS011;67585;44.802;10.332;2023-04-24T10:18:16;6.07;;;2.85;;
78120;SDS011;67585;44.802;10.332;2023-04-24T10:20:42;8.35;;;3.55;;
78120;SDS011;67585;44.802;10.332;2023-04-24T10:23:08;8.13;;;3.67;;
78120;SDS011;67585;44.802;10.332;2023-04-24T10:25:34;7.88;;;3.95;;
78120;SDS011;67585;44.802;10.332;2023-04-24T10:28:02;6.35;;;3.60;;
78120;SDS011;67585;44.802;10.332;2023-04-24T10:30:31;8.05;;;4.07;;
78120;SDS011;67585;44.802;10.332;2023-04-24T10:33:05;7.05;;;2.33;;
78120;SDS011;67585;44.802;10.332;2023-04-24T10:35:34;9.02;;;4.22;;
78120;SDS011;67585;44.802;10.332;2023-04-24T10:38:11;5.07;;;2.80;;
78120;SDS011;67585;44.802;10.332;2023-04-24T10:40:38;5.10;;;2.97;;
78120;SDS011;67585;44.802;10.332;2023-04-24T10:43:04;5.78;;;2.80;;
78120;SDS011;67585;44.802;10.332;2023-04-24T10:45:32;5.05;;;3.20;;
78120;SDS011;67585;44.802;10.332;2023-04-24T10:48:03;6.30;;;2.67;;
78120;SDS011;67585;44.802;10.332;2023-04-24T10:53:35;7.60;;;3.70;;
78120;SDS011;67585;44.802;10.332;2023-04-24T10:56:05;9.07;;;3.85;;
78120;SDS011;67585;44.802;10.332;2023-04-24T10:58:36;11.68;;;4.18;;
78120;SDS011;67585;44.802;10.332;2023-04-24T11:01:03;5.65;;;3.45;;
78120;SDS011;67585;44.802;10.332;2023-04-24T11:03:29;5.47;;;3.90;;
78120;SDS011;67585;44.802;10.332;2023-04-24T11:06:00;5.63;;;2.80;;
78120;SDS011;67585;44.802;10.332;2023-04-24T11:11:02;6.55;;;3.80;;
78120;SDS011;67585;44.802;10.332;2023-04-24T11:19:00;5.43;;;3.40;;
78120;SDS011;67585;44.802;10.332;2023-04-24T11:21:32;6.78;;;4.28;;
78120;SDS011;67585;44.802;10.332;2023-04-24T11:29:40;6.03;;;2.63;;
78120;SDS011;67585;44.802;10.332;2023-04-24T11:37:39;7.40;;;3.25;;
78120;SDS011;67585;44.802;10.332;2023-04-24T11:40:07;6.18;;;3.17;;
78120;SDS011;67585;44.802;10.332;2023-04-24T11:42:37;6.53;;;1.83;;
78120;SDS011;67585;44.802;10.332;2023-04-24T11:45:12;5.80;;;3.13;;
78120;SDS011;67585;44.802;10.332;2023-04-24T11:47:39;4.60;;;2.85;;
78120;SDS011;67585;44.802;10.332;2023-04-24T11:50:07;6.57;;;3.63;;
78120;SDS011;67585;44.802;10.332;2023-04-24T11:52:38;4.15;;;1.80;;
78120;SDS011;67585;44.802;10.332;2023-04-24T11:55:26;7.70;;;3.70;;
78120;SDS011;67585;44.802;10.332;2023-04-24T11:57:53;5.32;;;3.33;;
78120;SDS011;67585;44.802;10.332;2023-04-24T12:00:25;5.05;;;3.00;;
78120;SDS011;67585;44.802;10.332;2023-04-24T12:03:06;4.82;;;2.95;;
78120;SDS011;67585;44.802;10.332;2023-04-24T12:05:32;6.07;;;2.20;;
78120;SDS011;67585;44.802;10.332;2023-04-24T12:07:58;5.97;;;2.92;;
78120;SDS011;67585;44.802;10.332;2023-04-24T12:10:24;8.70;;;4.15;;
78120;SDS011;67585;44.802;10.332;2023-04-24T12:12:51;6.43;;;3.22;;
78120;SDS011;67585;44.802;10.332;2023-04-24T12:15:21;5.82;;;3.20;;
78120;SDS011;67585;44.802;10.332;2023-04-24T12:17:47;4.55;;;2.20;;
78120;SDS011;67585;44.802;10.332;2023-04-24T12:20:15;4.47;;;2.17;;
78120;SDS011;67585;44.802;10.332;2023-04-24T12:22:47;5.38;;;2.95;;
78120;SDS011;67585;44.802;10.332;2023-04-24T12:25:17;6.55;;;3.13;;
78120;SDS011;67585;44.802;10.332;2023-04-24T12:27:44;5.47;;;2.60;;
78120;SDS011;67585;44.802;10.332;2023-04-24T12:30:11;5.00;;;1.83;;
78120;SDS011;67585;44.802;10.332;2023-04-24T12:32:43;4.57;;;1.88;;
78120;SDS011;67585;44.802;10.332;2023-04-24T12:35:10;5.07;;;2.40;;
78120;SDS011;67585;44.802;10.332;2023-04-24T12:37:35;6.07;;;2.80;;
78120;SDS011;67585;44.802;10.332;2023-04-24T12:42:27;6.97;;;2.35;;
78120;SDS011;67585;44.802;10.332;2023-04-24T12:47:23;6.88;;;3.08;;
78120;SDS011;67585;44.802;10.332;2023-04-24T12:49:49;5.20;;;2.03;;
78120;SDS011;67585;44.802;10.332;2023-04-24T12:52:17;4.00;;;2.20;;
78120;SDS011;67585;44.802;10.332;2023-04-24T12:54:45;4.90;;;2.28;;
78120;SDS011;67585;44.802;10.332;2023-04-24T12:57:11;7.32;;;3.50;;
78120;SDS011;67585;44.802;10.332;2023-04-24T12:59:37;9.07;;;4.20;;
78120;SDS011;67585;44.802;10.332;2023-04-24T13:02:04;6.15;;;4.38;;
78120;SDS011;67585;44.802;10.332;2023-04-24T13:04:29;4.82;;;3.08;;
78120;SDS011;67585;44.802;10.332;2023-04-24T13:06:55;3.85;;;2.30;;
78120;SDS011;67585;44.802;10.332;2023-04-24T13:09:20;5.43;;;3.25;;
78120;SDS011;67585;44.802;10.332;2023-04-24T13:11:46;4.03;;;2.83;;
78120;SDS011;67585;44.802;10.332;2023-04-24T13:14:12;5.90;;;1.70;;
78120;SDS011;67585;44.802;10.332;2023-04-24T13:16:37;4.47;;;1.95;;
78120;SDS011;67585;44.802;10.332;2023-04-24T13:19:03;4.15;;;1.98;;
78120;SDS011;67585;44.802;10.332;2023-04-24T13:21:29;5.30;;;3.25;;
78120;SDS011;67585;44.802;10.332;2023-04-24T13:23:55;4.68;;;2.90;;
78120;SDS011;67585;44.802;10.332;2023-04-24T13:26:21;3.75;;;1.98;;
78120;SDS011;67585;44.802;10.332;2023-04-24T13:28:46;4.75;;;2.47;;
78120;SDS011;67585;44.802;10.332;2023-04-24T13:31:12;9.27;;;2.25;;
78120;SDS011;67585;44.802;10.332;2023-04-24T13:33:38;5.43;;;2.42;;
78120;SDS011;67585;44.802;10.332;2023-04-24T13:36:05;4.35;;;1.35;;
78120;SDS011;67585;44.802;10.332;2023-04-24T13:38:31;6.13;;;2.42;;
78120;SDS011;67585;44.802;10.332;2023-04-24T13:40:57;5.05;;;1.23;;
78120;SDS011;67585;44.802;10.332;2023-04-24T13:43:22;4.28;;;2.38;;
78120;SDS011;67585;44.802;10.332;2023-04-24T13:45:48;2.63;;;2.15;;
78120;SDS011;67585;44.802;10.332;2023-04-24T13:48:13;2.97;;;1.75;;
78120;SDS011;67585;44.802;10.332;2023-04-24T13:53:06;4.63;;;1.48;;
78120;SDS011;67585;44.802;10.332;2023-04-24T13:55:31;5.35;;;1.63;;
78120;SDS011;67585;44.802;10.332;2023-04-24T13:57:59;4.60;;;2.22;;
78120;SDS011;67585;44.802;10.332;2023-04-24T14:00:26;4.85;;;2.65;;
78120;SDS011;67585;44.802;10.332;2023-04-24T14:02:51;4.65;;;2.60;;
78120;SDS011;67585;44.802;10.332;2023-04-24T14:05:17;5.90;;;2.08;;
78120;SDS011;67585;44.802;10.332;2023-04-24T14:07:43;3.15;;;1.48;;
78120;SDS011;67585;44.802;10.332;2023-04-24T14:10:08;1.95;;;0.90;;
78120;SDS011;67585;44.802;10.332;2023-04-24T14:12:35;2.40;;;1.30;;
78120;SDS011;67585;44.802;10.332;2023-04-24T14:15:00;2.55;;;1.17;;
78120;SDS011;67585;44.802;10.332;2023-04-24T14:17:26;5.68;;;1.10;;
78120;SDS011;67585;44.802;10.332;2023-04-24T14:19:51;4.75;;;0.80;;
78120;SDS011;67585;44.802;10.332;2023-04-24T14:22:20;4.28;;;0.85;;
78120;SDS011;67585;44.802;10.332;2023-04-24T14:24:46;3.00;;;1.30;;
78120;SDS011;67585;44.802;10.332;2023-04-24T14:27:11;4.18;;;0.90;;
78120;SDS011;67585;44.802;10.332;2023-04-24T14:29:36;3.13;;;0.90;;
78120;SDS011;67585;44.802;10.332;2023-04-24T14:32:02;3.13;;;0.95;;
78120;SDS011;67585;44.802;10.332;2023-04-24T14:34:27;4.90;;;1.10;;
78120;SDS011;67585;44.802;10.332;2023-04-24T14:36:53;2.65;;;0.28;;
78120;SDS011;67585;44.802;10.332;2023-04-24T14:39:19;2.72;;;0.30;;
78120;SDS011;67585;44.802;10.332;2023-04-24T14:41:45;2.75;;;0.40;;
78120;SDS011;67585;44.802;10.332;2023-04-24T14:44:10;1.33;;;0.00;;
78120;SDS011;67585;44.802;10.332;2023-04-24T14:46:36;2.50;;;0.60;;
78120;SDS011;67585;44.802;10.332;2023-04-24T14:49:01;1.02;;;0.52;;
78120;SDS011;67585;44.802;10.332;2023-04-24T14:51:27;1.77;;;1.02;;
78120;SDS011;67585;44.802;10.332;2023-04-24T14:53:52;0.43;;;0.13;;
78120;SDS011;67585;44.802;10.332;2023-04-24T14:56:18;1.63;;;0.88;;
78120;SDS011;67585;44.802;10.332;2023-04-24T14:58:43;0.60;;;0.13;;
78120;SDS011;67585;44.802;10.332;2023-04-24T15:01:09;0.80;;;0.47;;
78120;SDS011;67585;44.802;10.332;2023-04-24T15:03:35;4.00;;;0.50;;
78120;SDS011;67585;44.802;10.332;2023-04-24T15:06:01;1.95;;;0.00;;
78120;SDS011;67585;44.802;10.332;2023-04-24T15:08:26;1.17;;;0.43;;
78120;SDS011;67585;44.802;10.332;2023-04-24T15:10:52;0.82;;;0.20;;